Redcliff, Canada
Current Conditions -  °F | °C
As of 7:00 PM on Friday 31 Oct 2014 (Local Time) from CYXH Reporting Station
Broken Clouds Broken Clouds  
Wind Chill: 50°   Ceiling: 16000
Heat Index: 50°   Visibility: 15mi
Dew Point: 37°   Wind: 8mph
Humidity: 62%   Direction: 250°WSW
Pressure: 29.64"   Gusts: NA
Location:  50.08°N, 110.79°W
Report Text: CYXH 010100Z 25007KT 15SM BKN160 10/03 A2964 RMK AC6 SLP046 DENSITY ALT 2600FT
Loading
Personal Weather Stations






























Interactive Weather Map
Tropical Storm Tracking
New forecast layout! Learn more

10-Day Weather Forecast

Advertisements
Track Severe Weather on mobile